Time;durP1;ratioP1;P1;durP2;ratioP2;P2;SDS_P1;SDS_P2;PMS_P1;PMS_P2;Temp;Humidity;BMP_temperature;BMP_pressure;BME280_temperature;BME280_humidity;BME280_pressure;Samples;Min_cycle;Max_cycle;Signal;HPM_P1;HPM_P2
2022/09/20 00:01:12;;;;;;;24.92;5.88;;;;;;;9.92;100.00;101516.63;4971193;28;20023;-74
2022/09/20 00:03:40;;;;;;;30.05;5.72;;;;;;;9.73;99.70;101514.72;4987350;28;20023;-74
2022/09/20 00:06:08;;;;;;;32.65;6.18;;;;;;;9.72;100.00;101521.13;4986818;28;20062;-74
2022/09/20 00:08:34;;;;;;;26.38;4.97;;;;;;;9.71;100.00;101524.81;4971976;28;20030;-74
2022/09/20 00:11:05;;;;;;;34.80;6.72;;;;;;;9.69;100.00;101520.53;4986625;28;20396;-74
2022/09/20 00:13:32;;;;;;;36.05;6.78;;;;;;;9.79;100.00;101521.44;4986551;28;20027;-74
2022/09/20 00:15:58;;;;;;;26.05;5.47;;;;;;;9.81;100.00;101524.84;4986572;28;20035;-74
2022/09/20 00:18:25;;;;;;;36.03;6.28;;;;;;;9.79;100.00;101526.84;4987070;28;20069;-74
2022/09/20 00:20:50;;;;;;;39.45;5.95;;;;;;;9.65;100.00;101535.31;4986642;28;20436;-74
2022/09/20 00:23:16;;;;;;;26.50;5.53;;;;;;;9.69;100.00;101531.34;4972011;28;20023;-74
2022/09/20 00:25:42;;;;;;;34.83;6.30;;;;;;;9.59;100.00;101541.28;4971758;28;20098;-74
2022/09/20 00:28:09;;;;;;;42.13;7.00;;;;;;;9.76;100.00;101537.91;4972069;28;20458;-74
2022/09/20 00:30:35;;;;;;;28.05;6.25;;;;;;;9.79;100.00;101537.66;4986727;28;20018;-74
2022/09/20 00:33:00;;;;;;;39.25;5.70;;;;;;;9.81;100.00;101535.66;4972068;28;20117;-75
2022/09/20 00:35:28;;;;;;;44.03;6.53;;;;;;;9.68;100.00;101535.91;4986608;28;20066;-74
2022/09/20 00:37:54;;;;;;;32.72;6.68;;;;;;;9.74;100.00;101539.91;4970197;28;20034;-74
2022/09/20 00:40:21;;;;;;;31.40;5.55;;;;;;;9.75;100.00;101547.03;4986563;28;20117;-74
2022/09/20 00:42:47;;;;;;;41.42;6.95;;;;;;;9.71;100.00;101540.16;4986245;28;20033;-74
2022/09/20 00:45:19;;;;;;;42.45;6.70;;;;;;;9.62;100.00;101541.00;4986683;28;20030;-74
2022/09/20 00:47:56;;;;;;;31.42;6.38;;;;;;;9.69;100.00;101547.56;4971586;28;20042;-74
2022/09/20 00:50:48;;;;;;;40.17;6.57;;;;;;;9.70;100.00;101539.31;4969970;28;20555;-74
2022/09/20 00:53:25;;;;;;;31.83;6.55;;;;;;;9.74;100.00;101546.19;4986868;28;20042;-74
2022/09/20 00:56:05;;;;;;;51.22;6.05;;;;;;;9.72;100.00;101541.91;4986485;28;20070;-75
2022/09/20 00:58:38;;;;;;;40.17;6.22;;;;;;;9.64;100.00;101533.59;4971111;28;20038;-74
2022/09/20 01:01:04;;;;;;;45.13;6.85;;;;;;;9.69;100.00;101542.16;4986163;28;20443;-74
2022/09/20 01:03:33;;;;;;;34.40;6.53;;;;;;;9.73;100.00;101551.72;4986001;28;20030;-74
2022/09/20 01:06:04;;;;;;;27.77;5.15;;;;;;;9.59;100.00;101552.09;4971178;28;20534;-74
2022/09/20 01:08:31;;;;;;;40.50;7.65;;;;;;;9.66;100.00;101555.97;4985232;28;20038;-74
2022/09/20 01:10:57;;;;;;;37.42;6.35;;;;;;;9.64;100.00;101547.13;4983469;28;20027;-74
2022/09/20 01:13:22;;;;;;;31.02;6.72;;;;;;;9.68;100.00;101548.56;4970243;28;20049;-75
2022/09/20 01:15:49;;;;;;;30.27;5.95;;;;;;;9.59;100.00;101552.09;4985836;28;20037;-74
2022/09/20 01:18:17;;;;;;;24.75;6.63;;;;;;;9.39;100.00;101557.41;4970131;28;20069;-74
2022/09/20 01:20:44;;;;;;;45.17;7.90;;;;;;;9.50;100.00;101551.91;5002434;28;20050;-74
2022/09/20 01:23:18;;;;;;;44.17;7.65;;;;;;;9.40;100.00;101548.31;4970879;28;20117;-74
2022/09/20 01:26:11;;;;;;;33.78;7.60;;;;;;;9.42;100.00;101551.72;4985280;28;20031;-74
2022/09/20 01:28:41;;;;;;;36.45;7.05;;;;;;;9.44;100.00;101549.72;4969412;28;20419;-75
2022/09/20 01:31:15;;;;;;;30.70;6.80;;;;;;;9.48;100.00;101545.78;4970657;28;20376;-74
2022/09/20 01:33:52;;;;;;;28.70;7.05;;;;;;;9.58;100.00;101544.97;4966798;28;20027;-74
2022/09/20 01:36:24;;;;;;;33.38;7.22;;;;;;;9.57;100.00;101540.53;4970499;28;20117;-74
2022/09/20 01:39:35;;;;;;;46.05;7.70;;;;;;;9.67;100.00;101554.97;4970608;28;20034;-75
2022/09/20 01:42:05;;;;;;;31.88;6.75;;;;;;;9.61;100.00;101560.94;4970957;28;20038;-74
2022/09/20 01:45:17;;;;;;;36.58;8.27;;;;;;;9.60;100.00;101559.22;4986116;28;20050;-74
2022/09/20 01:47:57;;;;;;;38.50;8.00;;;;;;;9.61;100.00;101547.41;4971144;28;20499;-74
2022/09/20 01:50:54;;;;;;;53.10;8.75;;;;;;;9.57;100.00;101554.91;4985566;28;20042;-74
2022/09/20 01:53:47;;;;;;;31.23;7.68;;;;;;;9.46;100.00;101564.00;4970766;28;20049;-74
2022/09/20 01:56:22;;;;;;;24.90;7.18;;;;;;;9.57;100.00;101564.88;4985483;28;20030;-74
2022/09/20 01:59:17;;;;;;;30.60;7.10;;;;;;;9.47;100.00;101571.09;4971036;28;20030;-74
2022/09/20 02:01:57;;;;;;;25.88;6.90;;;;;;;9.44;100.00;101565.94;4970982;28;20031;-74
2022/09/20 02:04:40;;;;;;;41.45;8.70;;;;;;;9.39;100.00;101568.22;4969838;28;20356;-74
2022/09/20 02:07:30;;;;;;;36.50;8.00;;;;;;;9.38;100.00;101576.44;4970939;28;20483;-74
2022/09/20 02:10:32;;;;;;;43.55;8.30;;;;;;;9.38;100.00;101566.47;4970691;28;20117;-74
2022/09/20 02:13:02;;;;;;;37.22;8.23;;;;;;;9.39;100.00;101557.41;4969679;28;20446;-74
2022/09/20 02:16:05;;;;;;;44.38;9.60;;;;;;;9.37;100.00;101575.59;4971306;28;20030;-74
2022/09/20 02:18:50;;;;;;;28.27;7.80;;;;;;;9.25;100.00;101576.63;4969871;28;20034;-74
2022/09/20 02:21:33;;;;;;;33.05;8.10;;;;;;;9.12;100.00;101586.78;4985549;28;20030;-74
2022/09/20 02:24:05;;;;;;;31.10;9.18;;;;;;;9.08;100.00;101590.75;4971195;28;20027;-72
2022/09/20 02:26:56;;;;;;;41.58;9.32;;;;;;;9.14;100.00;101574.88;4969314;28;20030;-71
2022/09/20 02:29:25;;;;;;;34.92;8.75;;;;;;;9.22;100.00;101577.78;4966751;28;20113;-72
2022/09/20 02:32:04;;;;;;;32.42;8.32;;;;;;;9.08;100.00;101575.41;4969658;28;20027;-72
2022/09/20 02:34:57;;;;;;;39.50;8.68;;;;;;;9.10;100.00;101588.78;4985843;28;20035;-71
2022/09/20 02:37:56;;;;;;;39.88;8.90;;;;;;;9.12;100.00;101581.38;4970765;28;20023;-72
2022/09/20 02:40:36;;;;;;;43.13;8.35;;;;;;;9.15;100.00;101589.25;4973510;28;20399;-72
2022/09/20 02:43:47;;;;;;;38.83;8.25;;;;;;;8.97;100.00;101589.81;4973203;28;20027;-71
2022/09/20 02:46:29;;;;;;;53.45;10.60;;;;;;;8.98;100.00;101591.53;4987503;28;20031;-72
2022/09/20 02:49:00;;;;;;;31.13;9.07;;;;;;;8.94;100.00;101584.69;4988041;28;20595;-71
2022/09/20 02:51:40;;;;;;;29.15;8.73;;;;;;;8.84;100.00;101589.16;4987822;28;20165;-72
2022/09/20 02:54:32;;;;;;;48.75;11.05;;;;;;;8.84;100.00;101593.69;4988203;28;20034;-71
2022/09/20 02:57:23;;;;;;;31.80;7.90;;;;;;;8.80;100.00;101593.09;4972470;28;20046;-72
2022/09/20 03:00:00;;;;;;;36.03;9.77;;;;;;;8.83;100.00;101597.38;4973226;28;20066;-71
2022/09/20 03:02:29;;;;;;;31.48;9.98;;;;;;;8.95;100.00;101604.44;4987954;28;20069;-71
2022/09/20 03:05:04;;;;;;;30.88;9.45;;;;;;;8.97;100.00;101606.03;4987026;28;20047;-72
2022/09/20 03:07:40;;;;;;;31.92;9.40;;;;;;;8.85;100.00;101607.06;4986689;28;20093;-72
2022/09/20 03:10:27;;;;;;;34.40;9.25;;;;;;;8.80;100.00;101614.72;4972585;28;20381;-72
2022/09/20 03:13:01;;;;;;;40.25;9.88;;;;;;;8.74;100.00;101620.63;4987724;28;20033;-72
2022/09/20 03:15:56;;;;;;;33.53;9.55;;;;;;;8.64;100.00;101608.88;4971065;28;20026;-72
2022/09/20 03:18:59;;;;;;;30.73;9.10;;;;;;;8.66;100.00;101620.38;4968550;28;20039;-72
2022/09/20 03:21:46;;;;;;;34.42;9.88;;;;;;;8.69;100.00;101614.75;4970817;28;20026;-72
2022/09/20 03:24:49;;;;;;;31.30;9.18;;;;;;;8.65;100.00;101615.97;4984602;28;20015;-72
2022/09/20 03:27:56;;;;;;;25.02;9.15;;;;;;;8.64;100.00;101620.50;4980033;28;20027;-72
2022/09/20 03:30:42;;;;;;;38.95;11.07;;;;;;;8.63;100.00;101623.34;4951459;28;20043;-72
2022/09/20 03:33:38;;;;;;;19.98;7.65;;;;;;;8.54;100.00;101624.97;4987584;28;20396;-72
2022/09/20 03:36:12;;;;;;;24.65;7.40;;;;;;;8.62;100.00;101632.44;4971870;28;20027;-72
2022/09/20 03:39:06;;;;;;;25.45;8.10;;;;;;;8.69;100.00;101630.94;4987176;28;20050;-72
2022/09/20 03:41:59;;;;;;;30.33;7.40;;;;;;;8.54;100.00;101632.19;4969971;28;20066;-72
2022/09/20 03:44:41;;;;;;;19.92;7.65;;;;;;;8.56;100.00;101632.94;4963292;28;20131;-72
2022/09/20 03:47:36;;;;;;;20.70;8.00;;;;;;;8.56;100.00;101643.75;4970460;28;20035;-72
2022/09/20 03:50:27;;;;;;;31.48;7.80;;;;;;;8.45;100.00;101635.66;5002466;28;20026;-72
2022/09/20 03:53:05;;;;;;;20.58;7.82;;;;;;;8.60;100.00;101639.78;4987045;28;20031;-72
2022/09/20 03:56:03;;;;;;;18.48;7.50;;;;;;;8.48;100.00;101635.41;4971992;28;20111;-72
2022/09/20 03:58:44;;;;;;;25.42;7.55;;;;;;;8.42;100.00;101637.63;4970657;28;20527;-72
2022/09/20 04:01:34;;;;;;;20.77;6.85;;;;;;;8.42;100.00;101645.72;4971239;28;20014;-72
2022/09/20 04:04:16;;;;;;;23.95;7.72;;;;;;;8.40;100.00;101634.19;4972457;28;20031;-72
2022/09/20 04:07:19;;;;;;;22.83;7.63;;;;;;;8.43;100.00;101639.34;4971910;28;20077;-72
2022/09/20 04:10:14;;;;;;;25.13;6.57;;;;;;;8.51;100.00;101645.94;4971681;28;20062;-72
2022/09/20 04:13:06;;;;;;;28.55;7.38;;;;;;;8.56;100.00;101649.13;4971826;28;20022;-72
2022/09/20 04:15:45;;;;;;;30.13;8.65;;;;;;;8.48;100.00;101651.63;5002900;28;20033;-72
2022/09/20 04:18:28;;;;;;;20.23;7.15;;;;;;;8.45;100.00;101649.16;4986329;28;20026;-72
2022/09/20 04:21:06;;;;;;;28.23;8.00;;;;;;;8.42;100.00;101648.44;4986188;28;20092;-72
2022/09/20 04:23:44;;;;;;;24.92;7.80;;;;;;;8.43;100.00;101650.13;4971837;28;20049;-72
2022/09/20 04:26:10;;;;;;;26.63;8.27;;;;;;;8.43;99.98;101650.13;4986291;28;20027;-72
2022/09/20 04:28:46;;;;;;;19.27;6.68;;;;;;;8.37;99.75;101650.63;4972534;28;20026;-71
2022/09/20 04:31:34;;;;;;;15.25;7.05;;;;;;;8.15;100.00;101662.28;4970166;28;20054;-72
2022/09/20 04:34:02;;;;;;;30.70;9.77;;;;;;;8.17;100.00;101654.06;4971127;28;20031;-72
2022/09/20 04:36:45;;;;;;;19.27;7.10;;;;;;;8.13;100.00;101648.03;4971420;28;20038;-72
2022/09/20 04:39:19;;;;;;;27.65;7.38;;;;;;;8.07;100.00;101653.06;4971681;28;20026;-72
2022/09/20 04:42:22;;;;;;;18.00;7.68;;;;;;;7.99;100.00;101655.53;4971378;28;20043;-72
2022/09/20 04:45:04;;;;;;;;;;;;;;;8.06;100.00;101656.75;4999461;28;20081;-72
2022/09/20 04:48:04;;;;;;;21.52;8.73;;;;;;;7.97;100.00;101662.91;4970947;28;19996;-72
2022/09/20 04:50:54;;;;;;;31.42;8.10;;;;;;;7.99;100.00;101672.56;4964675;28;20097;-72
2022/09/20 04:53:56;;;;;;;24.30;9.27;;;;;;;7.89;100.00;101672.44;5002787;28;20042;-72
2022/09/20 04:56:44;;;;;;;20.08;9.85;;;;;;;7.88;100.00;101673.41;4970885;28;20033;-72
2022/09/20 04:59:39;;;;;;;32.97;8.75;;;;;;;7.86;100.00;101678.06;4970301;28;20073;-71
2022/09/20 05:02:23;;;;;;;22.70;8.60;;;;;;;7.92;100.00;101681.28;4985109;28;20483;-73
2022/09/20 05:05:34;;;;;;;21.67;7.60;;;;;;;7.89;100.00;101672.44;4969966;28;20031;-73
2022/09/20 05:08:13;;;;;;;20.07;6.93;;;;;;;7.94;100.00;101676.59;4961775;28;20133;-73
2022/09/20 05:11:11;;;;;;;18.58;7.45;;;;;;;8.09;100.00;101688.88;4982443;28;20031;-73
2022/09/20 05:13:56;;;;;;;29.92;8.88;;;;;;;8.14;99.76;101698.31;4968666;28;20034;-73
2022/09/20 05:17:05;;;;;;;22.58;7.38;;;;;;;8.03;99.95;101695.63;4962187;28;20134;-73
2022/09/20 05:19:43;;;;;;;27.92;8.48;;;;;;;8.02;100.00;101690.31;4979849;28;20053;-73
2022/09/20 05:22:47;;;;;;;23.27;7.00;;;;;;;8.01;100.00;101696.72;4985616;28;20061;-73
2022/09/20 05:25:21;;;;;;;17.60;7.55;;;;;;;7.96;100.00;101704.31;4969285;28;20022;-73
2022/09/20 05:28:18;;;;;;;17.30;7.00;;;;;;;7.91;100.00;101701.13;4970510;28;20053;-73
2022/09/20 05:31:05;;;;;;;26.92;10.10;;;;;;;7.93;100.00;101707.25;4965337;28;20085;-73
2022/09/20 05:33:50;;;;;;;21.77;8.63;;;;;;;7.97;100.00;101706.03;4986016;28;20037;-73
2022/09/20 05:36:34;;;;;;;17.33;7.68;;;;;;;7.92;100.00;101705.53;4968861;28;20090;-73
2022/09/20 05:39:17;;;;;;;32.42;8.15;;;;;;;8.08;100.00;101700.63;4970797;28;20039;-73
2022/09/20 05:41:55;;;;;;;21.95;7.45;;;;;;;8.26;100.00;101712.66;4985875;28;20035;-73
2022/09/20 05:44:53;;;;;;;37.03;8.32;;;;;;;8.22;100.00;101705.81;4969894;28;20518;-73
2022/09/20 05:47:44;;;;;;;26.75;9.90;;;;;;;8.15;100.00;101720.78;4985602;28;20062;-73
2022/09/20 05:50:26;;;;;;;24.85;10.43;;;;;;;8.26;100.00;101718.06;4983980;28;20086;-73
2022/09/20 05:53:18;;;;;;;20.20;8.65;;;;;;;8.18;100.00;101720.50;4969220;28;20054;-73
2022/09/20 05:56:21;;;;;;;22.17;8.32;;;;;;;8.42;100.00;101728.53;4952621;28;20031;-73
2022/09/20 05:59:00;;;;;;;21.05;7.22;;;;;;;8.30;100.00;101727.63;4983340;28;20086;-72
2022/09/20 06:01:32;;;;;;;22.48;9.52;;;;;;;8.33;100.00;101732.78;4967953;28;20055;-73
2022/09/20 06:04:17;;;;;;;;;;;;;;;8.28;100.00;101737.69;4981905;28;20090;-73
2022/09/20 06:06:42;;;;;;;18.52;7.45;;;;;;;8.38;100.00;101743.25;4967403;28;21071;-73
2022/09/20 06:09:07;;;;;;;19.55;8.23;;;;;;;8.48;100.00;101737.97;4983933;28;20030;-73
2022/09/20 06:11:50;;;;;;;20.88;7.68;;;;;;;8.51;100.00;101740.41;4970931;28;20022;-72
2022/09/20 06:14:26;;;;;;;22.20;7.97;;;;;;;8.70;100.00;101743.34;4974319;28;20145;-72
2022/09/20 06:17:04;;;;;;;21.05;7.30;;;;;;;8.74;100.00;101739.41;4981653;28;20031;-73
2022/09/20 06:19:56;;;;;;;21.83;6.82;;;;;;;8.77;100.00;101744.56;4974072;28;20042;-73
2022/09/20 06:22:42;;;;;;;20.98;5.60;;;;;;;8.84;100.00;101734.97;4977124;28;20034;-73
2022/09/20 06:25:07;;;;;;;22.10;6.65;;;;;;;8.84;100.00;101734.13;4978311;28;20034;-72
2022/09/20 06:27:42;;;;;;;22.27;6.90;;;;;;;9.02;100.00;101742.56;4972610;28;20041;-72
2022/09/20 06:30:16;;;;;;;41.03;8.23;;;;;;;9.09;100.00;101754.56;4973805;28;20145;-72
2022/09/20 06:32:59;;;;;;;19.63;6.93;;;;;;;9.06;100.00;101744.00;4989185;28;20039;-72
2022/09/20 06:35:34;;;;;;;37.60;16.50;;;;;;;9.23;100.00;101743.47;4983468;28;20042;-70
2022/09/20 06:43:40;;;;;;;16.58;5.78;;;;;;;9.36;100.00;101746.84;4971700;28;20043;-70
2022/09/20 06:46:06;;;;;;;29.92;7.22;;;;;;;9.51;100.00;101756.34;4972316;28;20380;-70
2022/09/20 06:48:31;;;;;;;26.63;6.63;;;;;;;9.71;100.00;101759.22;4981349;28;20066;-71
2022/09/20 06:50:57;;;;;;;20.45;6.18;;;;;;;9.70;100.00;101760.22;4964568;28;20023;-70
2022/09/20 06:53:28;;;;;;;20.98;4.93;;;;;;;9.76;100.00;101765.94;4960956;28;20039;-72
2022/09/20 06:55:53;;;;;;;20.50;7.15;;;;;;;9.62;100.00;101757.31;4962502;28;20023;-71
2022/09/20 06:58:19;;;;;;;26.05;6.28;;;;;;;9.81;100.00;101762.84;4958646;28;20113;-72
2022/09/20 07:00:44;;;;;;;23.10;5.55;;;;;;;9.81;100.00;101762.84;4961923;28;20126;-70
2022/09/20 07:03:11;;;;;;;19.52;5.20;;;;;;;9.91;100.00;101757.50;4977472;28;20039;-73
2022/09/20 07:05:37;;;;;;;20.35;5.88;;;;;;;9.91;100.00;101768.31;4963757;28;20589;-72
2022/09/20 07:08:03;;;;;;;28.35;5.38;;;;;;;10.05;100.00;101766.16;4978425;28;20038;-73
2022/09/20 07:10:29;;;;;;;27.30;6.03;;;;;;;10.18;100.00;101767.81;4963108;28;20077;-71
2022/09/20 07:13:00;;;;;;;28.45;5.60;;;;;;;10.23;100.00;101773.69;4977711;28;20496;-70
2022/09/20 07:15:27;;;;;;;22.63;5.47;;;;;;;10.30;100.00;101775.75;4979079;28;20030;-71
2022/09/20 07:17:53;;;;;;;25.65;5.32;;;;;;;10.13;100.00;101775.47;4964422;28;20042;-72
2022/09/20 07:20:19;;;;;;;16.63;4.72;;;;;;;10.34;100.00;101776.31;4963406;28;20030;-71
2022/09/20 07:22:45;;;;;;;23.02;5.10;;;;;;;10.48;99.84;101784.06;4962830;28;20395;-72
2022/09/20 07:25:10;;;;;;;21.52;4.97;;;;;;;10.55;99.30;101785.25;4977710;28;20023;-71
2022/09/20 07:27:36;;;;;;;21.42;5.10;;;;;;;10.74;99.39;101786.31;4964363;28;20031;-72
2022/09/20 07:30:02;;;;;;;24.85;6.10;;;;;;;10.75;98.81;101790.75;4978041;28;20015;-73
2022/09/20 07:32:27;;;;;;;21.88;5.38;;;;;;;10.80;98.96;101793.91;4975201;28;20469;-73
2022/09/20 07:34:53;;;;;;;25.88;4.88;;;;;;;10.57;99.13;101790.56;4976680;28;20034;-73
2022/09/20 07:37:18;;;;;;;30.02;5.95;;;;;;;10.72;99.38;101801.88;4961598;28;20065;-71
2022/09/20 07:39:46;;;;;;;29.20;5.80;;;;;;;10.81;99.30;101801.03;4964341;28;20043;-71
2022/09/20 07:42:12;;;;;;;23.85;5.35;;;;;;;11.13;98.96;101796.28;4975876;28;20019;-71
2022/09/20 07:44:41;;;;;;;25.67;4.72;;;;;;;11.27;99.26;101810.44;4963483;28;20379;-72
2022/09/20 07:47:09;;;;;;;26.45;4.30;;;;;;;11.40;97.92;101802.88;4964089;28;20023;-71
2022/09/20 07:49:35;;;;;;;21.75;4.35;;;;;;;11.57;96.83;101810.34;4978461;28;20089;-72
2022/09/20 07:52:01;;;;;;;23.75;3.97;;;;;;;11.57;96.30;101804.91;4978456;28;20030;-70
2022/09/20 07:54:27;;;;;;;20.95;4.50;;;;;;;11.54;96.24;101810.63;4962154;28;20106;-70
2022/09/20 07:56:52;;;;;;;24.92;3.85;;;;;;;11.87;95.70;101813.97;4977707;28;20035;-72
2022/09/20 07:59:18;;;;;;;18.08;3.58;;;;;;;11.94;94.33;101817.81;4961297;28;20102;-71
2022/09/20 08:01:43;;;;;;;32.42;3.95;;;;;;;11.86;94.43;101825.78;4979188;28;20417;-73
2022/09/20 08:04:09;;;;;;;23.23;4.45;;;;;;;11.60;95.80;101820.88;4977762;28;20019;-73
2022/09/20 08:06:45;;;;;;;25.80;3.53;;;;;;;11.89;94.11;101820.09;4963396;28;20033;-72
2022/09/20 08:09:12;;;;;;;12.93;3.35;;;;;;;11.90;96.01;101828.09;4977901;28;20503;-72
2022/09/20 08:11:39;;;;;;;21.42;3.60;;;;;;;12.38;93.97;101831.72;4978244;28;20019;-72
2022/09/20 08:14:05;;;;;;;23.35;3.75;;;;;;;12.56;93.19;101835.41;4975536;28;20026;-71
2022/09/20 08:16:31;;;;;;;16.92;3.22;;;;;;;12.88;92.40;101824.13;4978208;28;20092;-72
2022/09/20 08:18:58;;;;;;;17.92;3.30;;;;;;;12.81;89.89;101833.03;4963222;28;20109;-73
2022/09/20 08:21:25;;;;;;;22.67;3.60;;;;;;;12.41;90.59;101837.72;4973895;28;20054;-72
2022/09/20 08:23:55;;;;;;;21.08;3.33;;;;;;;12.66;90.06;101836.22;4966653;28;20026;-73
2022/09/20 08:26:25;;;;;;;15.68;3.13;;;;;;;12.83;91.20;101836.44;4979488;28;20451;-70
2022/09/20 08:28:53;;;;;;;21.50;4.13;;;;;;;12.46;88.67;101840.00;4976140;28;20128;-70
2022/09/20 08:31:23;;;;;;;18.00;2.90;;;;;;;12.50;89.10;101839.56;4978851;28;20050;-69
2022/09/20 08:33:49;;;;;;;21.48;3.80;;;;;;;12.65;90.51;101845.41;4979928;28;20472;-70
2022/09/20 08:36:17;;;;;;;21.42;2.78;;;;;;;12.54;88.38;101837.41;4963247;28;20019;-69
2022/09/20 08:38:43;;;;;;;25.52;3.72;;;;;;;12.59;87.12;101845.13;4978656;28;20023;-69
2022/09/20 08:41:39;;;;;;;27.17;2.92;;;;;;;12.40;87.37;101840.59;4978415;28;20122;-71
2022/09/20 08:44:10;;;;;;;20.88;3.13;;;;;;;12.85;85.49;101834.44;4964361;28;20056;-70
2022/09/20 08:46:40;;;;;;;24.80;4.20;;;;;;;12.88;88.94;101835.00;4979443;28;20031;-70
2022/09/20 08:49:07;;;;;;;19.42;3.33;;;;;;;13.16;86.01;101849.44;4966619;28;20034;-71
2022/09/20 08:51:37;;;;;;;15.60;3.03;;;;;;;13.48;84.77;101839.97;4977000;28;20030;-74
2022/09/20 08:54:06;;;;;;;32.40;4.22;;;;;;;13.56;84.70;101834.63;4964934;28;20439;-71
2022/09/20 08:56:36;;;;;;;29.33;3.00;;;;;;;13.90;83.63;101842.13;4981499;28;20027;-72
2022/09/20 08:59:08;;;;;;;25.35;3.38;;;;;;;13.82;81.22;101841.03;4980547;28;20045;-72
2022/09/20 09:01:35;;;;;;;19.45;3.00;;;;;;;13.83;81.59;101852.78;4966004;28;20101;-72
2022/09/20 09:04:10;;;;;;;20.27;3.20;;;;;;;13.76;81.67;101852.53;4965469;28;20079;-71
2022/09/20 09:06:35;;;;;;;23.20;2.80;;;;;;;13.56;79.68;101845.50;4981152;28;20042;-72
2022/09/20 09:09:01;;;;;;;16.33;3.50;;;;;;;13.95;81.69;101850.66;4964118;28;20033;-71
2022/09/20 09:11:27;;;;;;;29.73;3.38;;;;;;;13.60;77.83;101857.81;4964127;28;20106;-70
2022/09/20 09:14:00;;;;;;;16.40;2.60;;;;;;;13.61;79.45;101848.63;4980046;28;20118;-71
2022/09/20 09:16:28;;;;;;;18.33;2.55;;;;;;;13.83;77.74;101853.63;4979193;28;20069;-70
2022/09/20 09:18:54;;;;;;;25.55;3.30;;;;;;;13.89;74.70;101854.00;4964181;28;20544;-70
2022/09/20 09:21:22;;;;;;;22.00;2.95;;;;;;;13.96;77.33;101852.38;4980594;28;20026;-72
2022/09/20 09:23:51;;;;;;;20.70;2.88;;;;;;;14.10;76.48;101854.56;4965573;28;20027;-71
2022/09/20 09:26:22;;;;;;;27.60;3.45;;;;;;;14.11;74.40;101851.66;4979869;28;20018;-71
2022/09/20 09:29:12;;;;;;;20.45;2.45;;;;;;;14.24;76.58;101856.72;4981020;28;20081;-70
2022/09/20 09:31:38;;;;;;;16.80;2.30;;;;;;;14.37;78.04;101856.28;4964765;28;20026;-71
2022/09/20 09:34:04;;;;;;;18.63;2.97;;;;;;;14.55;76.13;101859.00;4964327;28;20453;-70
2022/09/20 09:36:31;;;;;;;43.63;3.20;;;;;;;14.33;72.55;101861.19;4979677;28;20031;-70
2022/09/20 09:39:15;;;;;;;15.25;2.50;;;;;;;13.80;74.21;101869.41;4979612;28;20029;-71
2022/09/20 09:41:42;;;;;;;13.82;2.33;;;;;;;13.65;73.76;101860.94;4979563;28;20022;-71
2022/09/20 09:44:34;;;;;;;20.35;3.45;;;;;;;14.07;73.83;101865.75;4964976;28;20038;-71
2022/09/20 09:47:00;;;;;;;20.42;3.05;;;;;;;14.38;73.17;101864.31;4965746;28;20046;-71
2022/09/20 09:49:34;;;;;;;17.67;2.50;;;;;;;14.44;71.77;101856.50;4967899;28;20034;-70
2022/09/20 09:52:15;;;;;;;14.93;2.65;;;;;;;14.43;70.10;101865.72;4984159;28;20049;-70
2022/09/20 09:54:58;;;;;;;23.98;3.72;;;;;;;14.55;70.16;101864.47;4982965;28;20130;-71
2022/09/20 09:57:58;;;;;;;20.20;2.92;;;;;;;15.01;68.64;101856.91;4982556;28;20045;-72
2022/09/20 10:00:26;;;;;;;15.75;2.42;;;;;;;14.76;68.22;101866.81;4983411;28;20027;-71
2022/09/20 10:03:19;;;;;;;16.20;2.58;;;;;;;14.35;68.85;101864.63;4968061;28;20023;-71
2022/09/20 10:06:03;;;;;;;12.57;2.38;;;;;;;14.17;69.85;101861.06;4967847;28;20027;-71
2022/09/20 10:08:55;;;;;;;18.58;3.28;;;;;;;14.81;68.64;101859.00;4981818;28;20029;-71
2022/09/20 10:11:36;;;;;;;12.77;2.63;;;;;;;15.09;66.99;101859.66;4955821;28;20039;-70
2022/09/20 10:14:32;;;;;;;20.45;3.05;;;;;;;15.12;67.83;101862.03;4967066;28;20023;-69
2022/09/20 10:17:20;;;;;;;15.88;2.50;;;;;;;15.15;67.28;101872.63;4982605;28;20038;-70
2022/09/20 10:20:20;;;;;;;22.17;2.90;;;;;;;15.11;67.42;101868.50;4982946;28;20121;-70
2022/09/20 10:22:57;;;;;;;16.58;3.03;;;;;;;15.45;65.91;101868.47;4981360;28;20014;-70
2022/09/20 10:25:49;;;;;;;16.20;2.47;;;;;;;14.95;64.84;101865.72;4966937;28;20076;-73
2022/09/20 10:28:27;;;;;;;;;;;;;;;15.34;64.91;101866.91;4973859;28;20023;-70
2022/09/20 10:31:00;;;;;;;19.35;2.47;;;;;;;16.02;64.98;101872.19;4981189;28;19914;-70
2022/09/20 10:34:07;;;;;;;14.13;2.92;;;;;;;16.56;62.56;101866.19;4978596;28;20381;-70
2022/09/20 10:36:56;;;;;;;13.43;2.70;;;;;;;16.13;59.83;101861.97;4967512;28;20034;-71
2022/09/20 10:39:37;;;;;;;19.48;3.38;;;;;;;15.75;62.38;101864.31;4971945;28;20035;-71
2022/09/20 10:45:36;;;;;;;16.90;2.88;;;;;;;14.97;62.94;101869.13;4941127;28;20023;-71
2022/09/20 10:48:16;;;;;;;11.57;2.97;;;;;;;14.79;61.18;101872.78;4963851;28;20042;-70
2022/09/20 10:51:05;;;;;;;15.30;2.78;;;;;;;15.17;62.62;101865.13;4970122;28;20520;-71
2022/09/20 10:53:42;;;;;;;20.38;3.25;;;;;;;15.44;61.50;101866.75;4981661;28;20448;-70
2022/09/20 10:56:38;;;;;;;13.05;3.22;;;;;;;15.34;60.73;101866.91;4969300;28;20417;-70
2022/09/20 10:59:21;;;;;;;16.75;2.72;;;;;;;15.52;61.45;101864.09;4967949;28;20089;-70
2022/09/20 11:02:45;;;;;;;22.77;3.17;;;;;;;15.84;57.81;101863.28;4983955;28;20032;-71
2022/09/20 11:05:28;;;;;;;12.63;2.72;;;;;;;16.32;57.62;101872.56;4901473;29;20046;-70
2022/09/20 11:08:10;;;;;;;14.15;2.50;;;;;;;16.43;56.56;101866.75;4939169;29;20038;-71
2022/09/20 11:10:44;;;;;;;19.30;2.65;;;;;;;16.54;53.36;101871.84;4956743;28;20332;-71
2022/09/20 11:13:19;;;;;;;13.60;2.50;;;;;;;16.63;56.11;101874.59;4982856;28;20023;-70
2022/09/20 11:15:59;;;;;;;13.98;2.50;;;;;;;16.59;54.47;101884.16;4983241;28;20026;-71
2022/09/20 11:18:32;;;;;;;10.93;2.05;;;;;;;16.43;53.17;101880.44;4978880;28;20062;-70
2022/09/20 11:21:06;;;;;;;14.05;2.33;;;;;;;17.04;53.34;101883.56;4982594;28;20027;-70
2022/09/20 11:23:54;;;;;;;22.70;2.35;;;;;;;17.08;55.20;101869.38;4991352;28;20041;-70
2022/09/20 11:26:28;;;;;;;24.73;2.33;;;;;;;17.54;53.64;101874.09;4982019;28;20027;-71
2022/09/20 11:29:02;;;;;;;14.70;2.63;;;;;;;17.23;54.42;101882.31;4967089;28;20027;-71
2022/09/20 11:31:38;;;;;;;12.63;2.72;;;;;;;16.66;56.46;101880.56;4967377;28;20031;-70
2022/09/20 11:34:15;;;;;;;16.10;2.47;;;;;;;16.61;55.84;101882.09;4966677;28;20029;-71
2022/09/20 11:36:53;;;;;;;13.68;2.67;;;;;;;15.90;56.73;101879.00;4967839;28;20404;-70
2022/09/20 11:39:29;;;;;;;12.98;2.53;;;;;;;15.84;57.20;101879.69;4979606;28;20034;-70
2022/09/20 11:41:58;;;;;;;13.10;3.15;;;;;;;16.30;57.36;101885.56;4967183;28;20030;-71
2022/09/20 11:44:24;;;;;;;18.83;2.88;;;;;;;16.62;56.50;101892.00;4967854;28;20030;-71
2022/09/20 11:47:11;;;;;;;18.77;3.85;;;;;;;17.05;54.95;101891.59;4966708;28;20088;-71
2022/09/20 11:50:02;;;;;;;12.55;3.10;;;;;;;17.08;56.01;101885.78;4981840;28;20037;-71
2022/09/20 11:52:45;;;;;;;13.88;3.53;;;;;;;16.85;56.19;101887.56;4982405;28;20042;-72
2022/09/20 11:55:44;;;;;;;15.20;3.08;;;;;;;16.42;56.04;101884.16;4965426;28;20035;-71
2022/09/20 11:58:15;;;;;;;15.82;2.85;;;;;;;16.01;54.01;101892.34;4980527;28;20061;-72
2022/09/20 12:00:45;;;;;;;9.40;2.70;;;;;;;16.62;53.15;101884.66;4966924;28;20023;-71
2022/09/20 12:03:26;;;;;;;11.85;2.80;;;;;;;17.28;52.58;101886.22;4966166;28;20054;-71
2022/09/20 12:06:00;;;;;;;11.32;2.78;;;;;;;17.81;51.86;101881.84;4965716;28;20046;-71
2022/09/20 12:08:39;;;;;;;14.27;3.22;;;;;;;18.01;51.28;101882.22;4981043;28;20359;-71
2022/09/20 12:11:10;;;;;;;12.82;2.80;;;;;;;17.73;50.90;101900.22;4964366;28;20023;-71
2022/09/20 12:13:39;;;;;;;11.52;2.15;;;;;;;17.26;50.43;101901.09;4980850;28;20062;-70
2022/09/20 12:16:13;;;;;;;16.10;2.42;;;;;;;17.43;50.63;101894.53;4967215;28;20031;-69